sensor_id;sensor_type;location;lat;lon;timestamp;P1;durP1;ratioP1;P2;durP2;ratioP2
20824;SDS011;10573;50.936;6.978;2023-01-10T00:00:35;5.30;;;2.33;;
20824;SDS011;10573;50.936;6.978;2023-01-10T00:03:04;5.28;;;2.30;;
20824;SDS011;10573;50.936;6.978;2023-01-10T00:05:32;8.13;;;2.42;;
20824;SDS011;10573;50.936;6.978;2023-01-10T00:08:01;7.28;;;2.47;;
20824;SDS011;10573;50.936;6.978;2023-01-10T00:10:27;6.38;;;2.10;;
20824;SDS011;10573;50.936;6.978;2023-01-10T00:12:53;8.13;;;2.60;;
20824;SDS011;10573;50.936;6.978;2023-01-10T00:15:37;9.33;;;2.50;;
20824;SDS011;10573;50.936;6.978;2023-01-10T00:18:03;7.97;;;2.17;;
20824;SDS011;10573;50.936;6.978;2023-01-10T00:20:29;8.23;;;2.27;;
20824;SDS011;10573;50.936;6.978;2023-01-10T00:22:54;9.37;;;2.70;;
20824;SDS011;10573;50.936;6.978;2023-01-10T00:25:20;8.95;;;2.70;;
20824;SDS011;10573;50.936;6.978;2023-01-10T00:27:49;8.75;;;2.25;;
20824;SDS011;10573;50.936;6.978;2023-01-10T00:30:53;11.82;;;2.50;;
20824;SDS011;10573;50.936;6.978;2023-01-10T00:33:19;8.38;;;2.08;;
20824;SDS011;10573;50.936;6.978;2023-01-10T00:35:46;5.97;;;2.00;;
20824;SDS011;10573;50.936;6.978;2023-01-10T00:38:12;10.15;;;2.33;;
20824;SDS011;10573;50.936;6.978;2023-01-10T00:40:38;6.97;;;2.10;;
20824;SDS011;10573;50.936;6.978;2023-01-10T00:43:04;8.30;;;1.80;;
20824;SDS011;10573;50.936;6.978;2023-01-10T00:45:47;9.27;;;1.88;;
20824;SDS011;10573;50.936;6.978;2023-01-10T00:48:13;5.00;;;1.40;;
20824;SDS011;10573;50.936;6.978;2023-01-10T00:50:39;7.18;;;1.65;;
20824;SDS011;10573;50.936;6.978;2023-01-10T00:53:04;6.40;;;1.70;;
20824;SDS011;10573;50.936;6.978;2023-01-10T00:55:31;9.63;;;2.37;;
20824;SDS011;10573;50.936;6.978;2023-01-10T00:57:57;9.60;;;1.80;;
20824;SDS011;10573;50.936;6.978;2023-01-10T01:00:23;7.90;;;1.70;;
20824;SDS011;10573;50.936;6.978;2023-01-10T01:02:48;9.40;;;1.93;;
20824;SDS011;10573;50.936;6.978;2023-01-10T01:05:15;11.18;;;1.92;;
20824;SDS011;10573;50.936;6.978;2023-01-10T01:07:41;9.73;;;1.77;;
20824;SDS011;10573;50.936;6.978;2023-01-10T01:10:06;8.53;;;1.97;;
20824;SDS011;10573;50.936;6.978;2023-01-10T01:13:06;10.63;;;1.90;;
20824;SDS011;10573;50.936;6.978;2023-01-10T01:15:36;12.75;;;2.05;;
20824;SDS011;10573;50.936;6.978;2023-01-10T01:18:02;7.00;;;1.83;;
20824;SDS011;10573;50.936;6.978;2023-01-10T01:20:29;8.13;;;2.23;;
20824;SDS011;10573;50.936;6.978;2023-01-10T01:22:55;6.68;;;1.80;;
20824;SDS011;10573;50.936;6.978;2023-01-10T01:25:21;9.20;;;1.60;;
20824;SDS011;10573;50.936;6.978;2023-01-10T01:27:46;10.57;;;2.15;;
20824;SDS011;10573;50.936;6.978;2023-01-10T01:30:12;8.13;;;2.17;;
20824;SDS011;10573;50.936;6.978;2023-01-10T01:32:38;8.47;;;1.70;;
20824;SDS011;10573;50.936;6.978;2023-01-10T01:35:05;5.40;;;1.60;;
20824;SDS011;10573;50.936;6.978;2023-01-10T01:37:31;10.35;;;1.90;;
20824;SDS011;10573;50.936;6.978;2023-01-10T01:39:57;8.13;;;1.95;;
20824;SDS011;10573;50.936;6.978;2023-01-10T01:42:28;7.95;;;1.60;;
20824;SDS011;10573;50.936;6.978;2023-01-10T01:47:42;9.68;;;1.80;;
20824;SDS011;10573;50.936;6.978;2023-01-10T01:50:33;7.72;;;1.80;;
20824;SDS011;10573;50.936;6.978;2023-01-10T01:53:19;13.32;;;2.40;;
20824;SDS011;10573;50.936;6.978;2023-01-10T01:55:46;12.30;;;1.98;;
20824;SDS011;10573;50.936;6.978;2023-01-10T01:58:14;9.07;;;1.88;;
20824;SDS011;10573;50.936;6.978;2023-01-10T02:00:45;9.02;;;2.28;;
20824;SDS011;10573;50.936;6.978;2023-01-10T02:03:10;11.43;;;2.13;;
20824;SDS011;10573;50.936;6.978;2023-01-10T02:05:38;9.43;;;2.00;;
20824;SDS011;10573;50.936;6.978;2023-01-10T02:08:05;8.98;;;1.88;;
20824;SDS011;10573;50.936;6.978;2023-01-10T02:10:34;11.05;;;2.03;;
20824;SDS011;10573;50.936;6.978;2023-01-10T02:13:02;6.85;;;1.90;;
20824;SDS011;10573;50.936;6.978;2023-01-10T02:15:29;14.07;;;2.70;;
20824;SDS011;10573;50.936;6.978;2023-01-10T02:17:55;7.33;;;1.80;;
20824;SDS011;10573;50.936;6.978;2023-01-10T02:20:22;9.35;;;1.90;;
20824;SDS011;10573;50.936;6.978;2023-01-10T02:23:10;7.97;;;2.03;;
20824;SDS011;10573;50.936;6.978;2023-01-10T02:31:18;7.65;;;2.38;;
20824;SDS011;10573;50.936;6.978;2023-01-10T02:36:30;8.30;;;1.90;;
20824;SDS011;10573;50.936;6.978;2023-01-10T02:39:29;10.35;;;1.88;;
20824;SDS011;10573;50.936;6.978;2023-01-10T02:41:57;9.18;;;1.77;;
20824;SDS011;10573;50.936;6.978;2023-01-10T02:47:14;8.90;;;1.85;;
20824;SDS011;10573;50.936;6.978;2023-01-10T02:49:42;9.90;;;2.05;;
20824;SDS011;10573;50.936;6.978;2023-01-10T02:52:10;9.75;;;2.20;;
20824;SDS011;10573;50.936;6.978;2023-01-10T02:54:37;10.05;;;2.00;;
20824;SDS011;10573;50.936;6.978;2023-01-10T03:03:17;10.50;;;2.17;;
20824;SDS011;10573;50.936;6.978;2023-01-10T03:11:08;8.30;;;1.80;;
20824;SDS011;10573;50.936;6.978;2023-01-10T03:16:16;8.60;;;2.00;;
20824;SDS011;10573;50.936;6.978;2023-01-10T03:18:45;14.20;;;2.10;;
20824;SDS011;10573;50.936;6.978;2023-01-10T03:21:15;10.57;;;1.90;;
20824;SDS011;10573;50.936;6.978;2023-01-10T03:23:43;11.35;;;2.35;;
20824;SDS011;10573;50.936;6.978;2023-01-10T03:26:11;11.05;;;2.22;;
20824;SDS011;10573;50.936;6.978;2023-01-10T03:28:43;16.70;;;2.67;;
20824;SDS011;10573;50.936;6.978;2023-01-10T03:31:14;11.70;;;2.63;;
20824;SDS011;10573;50.936;6.978;2023-01-10T03:33:43;10.25;;;2.03;;
20824;SDS011;10573;50.936;6.978;2023-01-10T03:38:56;8.63;;;1.83;;
20824;SDS011;10573;50.936;6.978;2023-01-10T03:45:16;10.15;;;2.38;;
20824;SDS011;10573;50.936;6.978;2023-01-10T03:47:50;11.32;;;2.65;;
20824;SDS011;10573;50.936;6.978;2023-01-10T03:50:21;13.10;;;2.10;;
20824;SDS011;10573;50.936;6.978;2023-01-10T03:52:49;11.57;;;2.35;;
20824;SDS011;10573;50.936;6.978;2023-01-10T03:55:18;9.63;;;2.08;;
20824;SDS011;10573;50.936;6.978;2023-01-10T03:57:46;12.27;;;2.28;;
20824;SDS011;10573;50.936;6.978;2023-01-10T04:00:13;9.33;;;2.00;;
20824;SDS011;10573;50.936;6.978;2023-01-10T04:02:40;9.60;;;2.22;;
20824;SDS011;10573;50.936;6.978;2023-01-10T04:05:05;13.32;;;2.67;;
20824;SDS011;10573;50.936;6.978;2023-01-10T04:07:31;11.50;;;2.40;;
20824;SDS011;10573;50.936;6.978;2023-01-10T04:09:57;9.67;;;2.50;;
20824;SDS011;10573;50.936;6.978;2023-01-10T04:12:22;9.20;;;2.23;;
20824;SDS011;10573;50.936;6.978;2023-01-10T04:14:48;10.40;;;2.33;;
20824;SDS011;10573;50.936;6.978;2023-01-10T04:17:14;10.23;;;2.73;;
20824;SDS011;10573;50.936;6.978;2023-01-10T04:19:41;11.63;;;2.60;;
20824;SDS011;10573;50.936;6.978;2023-01-10T04:22:06;8.90;;;2.33;;
20824;SDS011;10573;50.936;6.978;2023-01-10T04:24:32;12.60;;;2.75;;
20824;SDS011;10573;50.936;6.978;2023-01-10T04:26:58;13.88;;;2.50;;
20824;SDS011;10573;50.936;6.978;2023-01-10T04:29:24;8.48;;;2.30;;
20824;SDS011;10573;50.936;6.978;2023-01-10T04:31:49;10.35;;;2.45;;
20824;SDS011;10573;50.936;6.978;2023-01-10T04:34:15;12.50;;;2.27;;
20824;SDS011;10573;50.936;6.978;2023-01-10T04:36:40;12.27;;;2.70;;
20824;SDS011;10573;50.936;6.978;2023-01-10T04:39:06;10.98;;;2.63;;
20824;SDS011;10573;50.936;6.978;2023-01-10T04:41:32;12.02;;;2.30;;
20824;SDS011;10573;50.936;6.978;2023-01-10T04:43:57;11.10;;;2.50;;
20824;SDS011;10573;50.936;6.978;2023-01-10T04:46:23;11.63;;;2.27;;
20824;SDS011;10573;50.936;6.978;2023-01-10T04:48:48;12.87;;;2.73;;
20824;SDS011;10573;50.936;6.978;2023-01-10T04:51:14;11.53;;;2.90;;
20824;SDS011;10573;50.936;6.978;2023-01-10T04:53:39;12.63;;;2.42;;
20824;SDS011;10573;50.936;6.978;2023-01-10T04:56:06;17.42;;;2.72;;
20824;SDS011;10573;50.936;6.978;2023-01-10T04:58:34;11.90;;;2.45;;
20824;SDS011;10573;50.936;6.978;2023-01-10T05:01:09;12.60;;;2.83;;
20824;SDS011;10573;50.936;6.978;2023-01-10T05:03:36;10.38;;;2.45;;
20824;SDS011;10573;50.936;6.978;2023-01-10T05:06:02;13.93;;;2.63;;
20824;SDS011;10573;50.936;6.978;2023-01-10T05:08:28;10.63;;;2.33;;
20824;SDS011;10573;50.936;6.978;2023-01-10T05:10:54;15.10;;;2.60;;
20824;SDS011;10573;50.936;6.978;2023-01-10T05:13:19;11.93;;;2.63;;
20824;SDS011;10573;50.936;6.978;2023-01-10T05:15:45;16.07;;;2.47;;
20824;SDS011;10573;50.936;6.978;2023-01-10T05:18:10;14.17;;;2.87;;
20824;SDS011;10573;50.936;6.978;2023-01-10T05:20:35;11.67;;;2.70;;
20824;SDS011;10573;50.936;6.978;2023-01-10T05:23:01;13.23;;;2.27;;
20824;SDS011;10573;50.936;6.978;2023-01-10T05:25:26;12.70;;;2.87;;
20824;SDS011;10573;50.936;6.978;2023-01-10T05:27:52;15.82;;;2.72;;
20824;SDS011;10573;50.936;6.978;2023-01-10T05:30:17;11.93;;;2.45;;
20824;SDS011;10573;50.936;6.978;2023-01-10T05:32:43;15.50;;;2.88;;
20824;SDS011;10573;50.936;6.978;2023-01-10T05:35:09;14.20;;;2.78;;
20824;SDS011;10573;50.936;6.978;2023-01-10T05:37:34;12.80;;;2.67;;
20824;SDS011;10573;50.936;6.978;2023-01-10T05:40:00;12.53;;;2.53;;
20824;SDS011;10573;50.936;6.978;2023-01-10T05:42:25;10.67;;;2.27;;
20824;SDS011;10573;50.936;6.978;2023-01-10T05:44:51;13.17;;;2.53;;
20824;SDS011;10573;50.936;6.978;2023-01-10T05:47:16;11.90;;;2.57;;
20824;SDS011;10573;50.936;6.978;2023-01-10T05:49:41;12.87;;;3.47;;
20824;SDS011;10573;50.936;6.978;2023-01-10T05:52:07;14.10;;;2.72;;
20824;SDS011;10573;50.936;6.978;2023-01-10T05:54:32;14.37;;;2.77;;
20824;SDS011;10573;50.936;6.978;2023-01-10T05:56:57;15.27;;;2.83;;
20824;SDS011;10573;50.936;6.978;2023-01-10T05:59:23;12.88;;;2.92;;
20824;SDS011;10573;50.936;6.978;2023-01-10T06:01:48;15.17;;;2.63;;
20824;SDS011;10573;50.936;6.978;2023-01-10T06:04:14;13.40;;;2.70;;
20824;SDS011;10573;50.936;6.978;2023-01-10T06:06:39;15.98;;;3.13;;
20824;SDS011;10573;50.936;6.978;2023-01-10T06:09:05;14.97;;;3.40;;
20824;SDS011;10573;50.936;6.978;2023-01-10T06:11:30;11.83;;;2.63;;
20824;SDS011;10573;50.936;6.978;2023-01-10T06:14:00;19.23;;;2.88;;
20824;SDS011;10573;50.936;6.978;2023-01-10T06:16:26;19.40;;;3.38;;
20824;SDS011;10573;50.936;6.978;2023-01-10T06:18:52;15.73;;;3.27;;
20824;SDS011;10573;50.936;6.978;2023-01-10T06:21:17;20.83;;;3.43;;
20824;SDS011;10573;50.936;6.978;2023-01-10T06:23:42;16.03;;;3.20;;
20824;SDS011;10573;50.936;6.978;2023-01-10T06:26:08;16.13;;;2.77;;
20824;SDS011;10573;50.936;6.978;2023-01-10T06:28:33;15.70;;;3.07;;
20824;SDS011;10573;50.936;6.978;2023-01-10T06:30:59;16.53;;;3.33;;
20824;SDS011;10573;50.936;6.978;2023-01-10T06:33:24;20.70;;;3.63;;
20824;SDS011;10573;50.936;6.978;2023-01-10T06:35:50;16.55;;;3.67;;
20824;SDS011;10573;50.936;6.978;2023-01-10T06:38:16;17.90;;;3.08;;
20824;SDS011;10573;50.936;6.978;2023-01-10T06:40:42;14.63;;;3.20;;
20824;SDS011;10573;50.936;6.978;2023-01-10T06:43:08;17.13;;;3.00;;
20824;SDS011;10573;50.936;6.978;2023-01-10T06:45:35;15.68;;;3.38;;
20824;SDS011;10573;50.936;6.978;2023-01-10T06:48:01;15.77;;;3.13;;
20824;SDS011;10573;50.936;6.978;2023-01-10T06:50:26;15.53;;;2.93;;
20824;SDS011;10573;50.936;6.978;2023-01-10T06:52:58;13.70;;;2.93;;
20824;SDS011;10573;50.936;6.978;2023-01-10T06:55:25;16.40;;;2.75;;
20824;SDS011;10573;50.936;6.978;2023-01-10T06:57:58;18.42;;;3.03;;
20824;SDS011;10573;50.936;6.978;2023-01-10T07:00:26;15.73;;;3.20;;
20824;SDS011;10573;50.936;6.978;2023-01-10T07:02:52;13.25;;;2.83;;
20824;SDS011;10573;50.936;6.978;2023-01-10T07:05:18;13.18;;;2.75;;
20824;SDS011;10573;50.936;6.978;2023-01-10T07:07:45;10.80;;;3.13;;
20824;SDS011;10573;50.936;6.978;2023-01-10T07:10:10;14.95;;;2.75;;
20824;SDS011;10573;50.936;6.978;2023-01-10T07:12:36;12.53;;;3.10;;
20824;SDS011;10573;50.936;6.978;2023-01-10T07:15:01;18.70;;;3.63;;
20824;SDS011;10573;50.936;6.978;2023-01-10T07:17:28;17.90;;;3.08;;
20824;SDS011;10573;50.936;6.978;2023-01-10T07:19:54;16.30;;;3.40;;
20824;SDS011;10573;50.936;6.978;2023-01-10T07:22:19;11.57;;;2.83;;
20824;SDS011;10573;50.936;6.978;2023-01-10T07:24:45;15.75;;;3.30;;
20824;SDS011;10573;50.936;6.978;2023-01-10T07:27:10;12.97;;;3.17;;
20824;SDS011;10573;50.936;6.978;2023-01-10T07:29:36;19.97;;;3.37;;
20824;SDS011;10573;50.936;6.978;2023-01-10T07:32:01;15.32;;;3.28;;
20824;SDS011;10573;50.936;6.978;2023-01-10T07:34:27;13.30;;;3.60;;
20824;SDS011;10573;50.936;6.978;2023-01-10T07:36:52;15.77;;;3.60;;
20824;SDS011;10573;50.936;6.978;2023-01-10T07:39:17;17.52;;;3.58;;
20824;SDS011;10573;50.936;6.978;2023-01-10T07:41:43;13.97;;;3.80;;
20824;SDS011;10573;50.936;6.978;2023-01-10T07:44:08;16.43;;;3.60;;
20824;SDS011;10573;50.936;6.978;2023-01-10T07:46:33;16.67;;;3.43;;
20824;SDS011;10573;50.936;6.978;2023-01-10T07:48:59;15.30;;;3.40;;
20824;SDS011;10573;50.936;6.978;2023-01-10T07:51:24;14.57;;;3.55;;
20824;SDS011;10573;50.936;6.978;2023-01-10T07:53:50;14.87;;;2.97;;
20824;SDS011;10573;50.936;6.978;2023-01-10T07:56:15;16.67;;;3.23;;
20824;SDS011;10573;50.936;6.978;2023-01-10T07:58:41;18.43;;;3.40;;
20824;SDS011;10573;50.936;6.978;2023-01-10T08:01:06;16.38;;;3.53;;
20824;SDS011;10573;50.936;6.978;2023-01-10T08:03:32;18.00;;;3.17;;
20824;SDS011;10573;50.936;6.978;2023-01-10T08:06:05;9.45;;;3.05;;
20824;SDS011;10573;50.936;6.978;2023-01-10T08:08:32;17.10;;;3.05;;
20824;SDS011;10573;50.936;6.978;2023-01-10T08:10:58;17.50;;;3.28;;
20824;SDS011;10573;50.936;6.978;2023-01-10T08:13:24;23.90;;;3.30;;
20824;SDS011;10573;50.936;6.978;2023-01-10T08:15:50;16.40;;;3.20;;
20824;SDS011;10573;50.936;6.978;2023-01-10T08:18:16;14.48;;;3.55;;
20824;SDS011;10573;50.936;6.978;2023-01-10T08:20:43;15.10;;;3.45;;
20824;SDS011;10573;50.936;6.978;2023-01-10T08:23:11;16.08;;;4.22;;
20824;SDS011;10573;50.936;6.978;2023-01-10T08:25:36;17.40;;;4.20;;
20824;SDS011;10573;50.936;6.978;2023-01-10T08:28:01;27.90;;;6.88;;
20824;SDS011;10573;50.936;6.978;2023-01-10T08:30:27;17.87;;;3.63;;
20824;SDS011;10573;50.936;6.978;2023-01-10T08:32:53;21.23;;;4.07;;
20824;SDS011;10573;50.936;6.978;2023-01-10T08:35:18;20.20;;;3.80;;
20824;SDS011;10573;50.936;6.978;2023-01-10T08:37:44;21.83;;;3.87;;
20824;SDS011;10573;50.936;6.978;2023-01-10T08:40:09;15.43;;;4.03;;
20824;SDS011;10573;50.936;6.978;2023-01-10T08:42:35;18.27;;;3.97;;
20824;SDS011;10573;50.936;6.978;2023-01-10T08:45:01;24.13;;;4.80;;
20824;SDS011;10573;50.936;6.978;2023-01-10T08:47:27;22.98;;;4.75;;
20824;SDS011;10573;50.936;6.978;2023-01-10T08:49:52;17.95;;;4.88;;
20824;SDS011;10573;50.936;6.978;2023-01-10T08:52:17;16.10;;;3.73;;
20824;SDS011;10573;50.936;6.978;2023-01-10T08:54:43;17.43;;;3.80;;
20824;SDS011;10573;50.936;6.978;2023-01-10T08:57:08;18.80;;;3.47;;
20824;SDS011;10573;50.936;6.978;2023-01-10T08:59:34;24.10;;;4.20;;
20824;SDS011;10573;50.936;6.978;2023-01-10T09:01:59;17.23;;;3.73;;
20824;SDS011;10573;50.936;6.978;2023-01-10T09:04:25;16.88;;;3.70;;
20824;SDS011;10573;50.936;6.978;2023-01-10T09:06:53;16.88;;;4.32;;
20824;SDS011;10573;50.936;6.978;2023-01-10T09:09:19;17.85;;;3.95;;
20824;SDS011;10573;50.936;6.978;2023-01-10T09:11:44;15.47;;;3.77;;
20824;SDS011;10573;50.936;6.978;2023-01-10T09:14:10;21.93;;;4.37;;
20824;SDS011;10573;50.936;6.978;2023-01-10T09:16:35;18.17;;;4.20;;
20824;SDS011;10573;50.936;6.978;2023-01-10T09:19:01;16.57;;;3.23;;
20824;SDS011;10573;50.936;6.978;2023-01-10T09:21:27;17.98;;;3.42;;
20824;SDS011;10573;50.936;6.978;2023-01-10T09:23:53;15.60;;;3.83;;
20824;SDS011;10573;50.936;6.978;2023-01-10T09:26:19;20.52;;;3.80;;
20824;SDS011;10573;50.936;6.978;2023-01-10T09:28:44;18.10;;;3.50;;
20824;SDS011;10573;50.936;6.978;2023-01-10T09:31:09;12.87;;;3.10;;
20824;SDS011;10573;50.936;6.978;2023-01-10T09:33:36;18.42;;;3.08;;
20824;SDS011;10573;50.936;6.978;2023-01-10T09:36:01;17.33;;;4.17;;
20824;SDS011;10573;50.936;6.978;2023-01-10T09:38:27;15.90;;;3.78;;
20824;SDS011;10573;50.936;6.978;2023-01-10T09:40:56;17.27;;;4.13;;
20824;SDS011;10573;50.936;6.978;2023-01-10T09:46:26;13.40;;;3.38;;
20824;SDS011;10573;50.936;6.978;2023-01-10T09:49:20;16.58;;;3.10;;
20824;SDS011;10573;50.936;6.978;2023-01-10T09:51:49;16.15;;;3.08;;
20824;SDS011;10573;50.936;6.978;2023-01-10T09:56:49;17.00;;;3.07;;
20824;SDS011;10573;50.936;6.978;2023-01-10T09:59:25;13.82;;;2.60;;
20824;SDS011;10573;50.936;6.978;2023-01-10T10:02:03;13.52;;;2.85;;
20824;SDS011;10573;50.936;6.978;2023-01-10T10:04:41;27.25;;;6.57;;
20824;SDS011;10573;50.936;6.978;2023-01-10T10:07:13;18.92;;;3.50;;
20824;SDS011;10573;50.936;6.978;2023-01-10T10:09:39;20.90;;;3.00;;
20824;SDS011;10573;50.936;6.978;2023-01-10T10:20:38;21.70;;;3.03;;
20824;SDS011;10573;50.936;6.978;2023-01-10T10:26:46;14.40;;;2.67;;
20824;SDS011;10573;50.936;6.978;2023-01-10T10:34:30;11.73;;;2.50;;
20824;SDS011;10573;50.936;6.978;2023-01-10T10:37:20;15.77;;;3.15;;
20824;SDS011;10573;50.936;6.978;2023-01-10T10:39:57;15.47;;;3.00;;
20824;SDS011;10573;50.936;6.978;2023-01-10T10:42:31;18.95;;;3.42;;
20824;SDS011;10573;50.936;6.978;2023-01-10T10:45:09;15.20;;;3.75;;
20824;SDS011;10573;50.936;6.978;2023-01-10T10:47:39;15.73;;;2.58;;
20824;SDS011;10573;50.936;6.978;2023-01-10T10:52:39;15.40;;;2.47;;
20824;SDS011;10573;50.936;6.978;2023-01-10T10:55:05;18.65;;;3.30;;
20824;SDS011;10573;50.936;6.978;2023-01-10T10:57:37;17.75;;;2.83;;
20824;SDS011;10573;50.936;6.978;2023-01-10T11:00:04;14.15;;;2.90;;
20824;SDS011;10573;50.936;6.978;2023-01-10T11:02:32;12.88;;;2.60;;
20824;SDS011;10573;50.936;6.978;2023-01-10T11:05:12;15.80;;;2.72;;
20824;SDS011;10573;50.936;6.978;2023-01-10T11:07:41;12.45;;;2.50;;
20824;SDS011;10573;50.936;6.978;2023-01-10T11:10:13;17.90;;;2.78;;
20824;SDS011;10573;50.936;6.978;2023-01-10T11:12:46;16.15;;;2.50;;
20824;SDS011;10573;50.936;6.978;2023-01-10T11:20:47;16.02;;;2.70;;
20824;SDS011;10573;50.936;6.978;2023-01-10T11:26:47;11.43;;;2.13;;
20824;SDS011;10573;50.936;6.978;2023-01-10T11:29:05;15.05;;;2.53;;
20824;SDS011;10573;50.936;6.978;2023-01-10T11:31:44;14.52;;;2.13;;
20824;SDS011;10573;50.936;6.978;2023-01-10T11:39:18;10.93;;;2.50;;
20824;SDS011;10573;50.936;6.978;2023-01-10T11:41:43;13.57;;;2.33;;
20824;SDS011;10573;50.936;6.978;2023-01-10T11:44:16;14.57;;;2.67;;
20824;SDS011;10573;50.936;6.978;2023-01-10T11:46:45;15.13;;;2.85;;
20824;SDS011;10573;50.936;6.978;2023-01-10T11:49:13;11.32;;;2.60;;
20824;SDS011;10573;50.936;6.978;2023-01-10T11:51:50;12.73;;;2.50;;
20824;SDS011;10573;50.936;6.978;2023-01-10T11:54:27;13.90;;;2.22;;
20824;SDS011;10573;50.936;6.978;2023-01-10T11:57:06;12.20;;;2.65;;
20824;SDS011;10573;50.936;6.978;2023-01-10T11:59:38;13.27;;;2.50;;
20824;SDS011;10573;50.936;6.978;2023-01-10T12:02:19;11.50;;;2.40;;
20824;SDS011;10573;50.936;6.978;2023-01-10T12:04:48;11.18;;;2.05;;
20824;SDS011;10573;50.936;6.978;2023-01-10T12:07:15;10.52;;;2.17;;
20824;SDS011;10573;50.936;6.978;2023-01-10T12:09:43;12.20;;;2.28;;
20824;SDS011;10573;50.936;6.978;2023-01-10T12:12:25;11.97;;;2.40;;
20824;SDS011;10573;50.936;6.978;2023-01-10T12:14:57;7.97;;;2.10;;
20824;SDS011;10573;50.936;6.978;2023-01-10T12:17:25;13.43;;;2.63;;
20824;SDS011;10573;50.936;6.978;2023-01-10T12:19:54;12.50;;;2.60;;
20824;SDS011;10573;50.936;6.978;2023-01-10T12:22:26;8.68;;;1.80;;
20824;SDS011;10573;50.936;6.978;2023-01-10T12:24:55;10.07;;;1.90;;
20824;SDS011;10573;50.936;6.978;2023-01-10T12:27:23;14.60;;;2.38;;
20824;SDS011;10573;50.936;6.978;2023-01-10T12:30:05;10.82;;;2.65;;
20824;SDS011;10573;50.936;6.978;2023-01-10T12:32:47;12.73;;;2.30;;
20824;SDS011;10573;50.936;6.978;2023-01-10T12:35:17;15.88;;;2.33;;
20824;SDS011;10573;50.936;6.978;2023-01-10T12:37:50;16.05;;;2.20;;
20824;SDS011;10573;50.936;6.978;2023-01-10T12:40:32;16.10;;;2.60;;
20824;SDS011;10573;50.936;6.978;2023-01-10T12:43:11;8.95;;;2.10;;
20824;SDS011;10573;50.936;6.978;2023-01-10T12:46:05;9.18;;;2.00;;
20824;SDS011;10573;50.936;6.978;2023-01-10T12:48:49;10.88;;;1.95;;
20824;SDS011;10573;50.936;6.978;2023-01-10T12:51:21;13.75;;;2.60;;
20824;SDS011;10573;50.936;6.978;2023-01-10T12:53:54;11.63;;;2.07;;
20824;SDS011;10573;50.936;6.978;2023-01-10T12:56:25;10.35;;;2.33;;
20824;SDS011;10573;50.936;6.978;2023-01-10T12:58:56;11.77;;;2.10;;
20824;SDS011;10573;50.936;6.978;2023-01-10T13:01:28;9.48;;;2.28;;
20824;SDS011;10573;50.936;6.978;2023-01-10T13:03:58;8.23;;;1.90;;
20824;SDS011;10573;50.936;6.978;2023-01-10T13:06:32;10.90;;;2.08;;
20824;SDS011;10573;50.936;6.978;2023-01-10T13:09:02;10.73;;;2.17;;
20824;SDS011;10573;50.936;6.978;2023-01-10T13:11:49;10.50;;;2.10;;
20824;SDS011;10573;50.936;6.978;2023-01-10T13:14:18;16.38;;;1.98;;
20824;SDS011;10573;50.936;6.978;2023-01-10T13:16:55;11.93;;;2.40;;
20824;SDS011;10573;50.936;6.978;2023-01-10T13:19:27;12.98;;;2.03;;
20824;SDS011;10573;50.936;6.978;2023-01-10T13:22:16;11.35;;;1.90;;
20824;SDS011;10573;50.936;6.978;2023-01-10T13:24:57;7.55;;;1.83;;
20824;SDS011;10573;50.936;6.978;2023-01-10T13:27:26;9.73;;;2.00;;
20824;SDS011;10573;50.936;6.978;2023-01-10T13:29:55;12.27;;;2.50;;
20824;SDS011;10573;50.936;6.978;2023-01-10T13:32:22;8.37;;;2.00;;
20824;SDS011;10573;50.936;6.978;2023-01-10T13:34:51;10.45;;;2.15;;
20824;SDS011;10573;50.936;6.978;2023-01-10T13:37:24;10.80;;;1.73;;
20824;SDS011;10573;50.936;6.978;2023-01-10T13:39:55;12.93;;;1.88;;
20824;SDS011;10573;50.936;6.978;2023-01-10T13:42:33;14.52;;;2.10;;
20824;SDS011;10573;50.936;6.978;2023-01-10T13:45:22;10.02;;;2.40;;
20824;SDS011;10573;50.936;6.978;2023-01-10T13:52:49;13.43;;;2.50;;
20824;SDS011;10573;50.936;6.978;2023-01-10T13:55:28;11.60;;;2.42;;
20824;SDS011;10573;50.936;6.978;2023-01-10T13:58:01;9.60;;;2.13;;
20824;SDS011;10573;50.936;6.978;2023-01-10T14:06:11;12.85;;;2.50;;
20824;SDS011;10573;50.936;6.978;2023-01-10T14:08:46;12.75;;;3.00;;
20824;SDS011;10573;50.936;6.978;2023-01-10T14:11:14;7.15;;;1.80;;
20824;SDS011;10573;50.936;6.978;2023-01-10T14:14:01;10.03;;;2.27;;
20824;SDS011;10573;50.936;6.978;2023-01-10T14:19:06;10.65;;;2.30;;
20824;SDS011;10573;50.936;6.978;2023-01-10T14:21:49;12.85;;;3.90;;
20824;SDS011;10573;50.936;6.978;2023-01-10T14:25:01;12.15;;;2.20;;
20824;SDS011;10573;50.936;6.978;2023-01-10T14:27:13;11.57;;;2.33;;
20824;SDS011;10573;50.936;6.978;2023-01-10T14:29:42;12.90;;;2.10;;
20824;SDS011;10573;50.936;6.978;2023-01-10T14:32:29;15.02;;;2.80;;
20824;SDS011;10573;50.936;6.978;2023-01-10T14:34:59;10.73;;;2.10;;
20824;SDS011;10573;50.936;6.978;2023-01-10T14:37:28;7.95;;;2.25;;
20824;SDS011;10573;50.936;6.978;2023-01-10T14:39:59;9.43;;;2.10;;
20824;SDS011;10573;50.936;6.978;2023-01-10T14:42:24;11.27;;;1.97;;
20824;SDS011;10573;50.936;6.978;2023-01-10T14:45:28;12.35;;;2.30;;
20824;SDS011;10573;50.936;6.978;2023-01-10T14:47:54;13.43;;;2.35;;
20824;SDS011;10573;50.936;6.978;2023-01-10T14:50:38;17.63;;;2.80;;
20824;SDS011;10573;50.936;6.978;2023-01-10T14:53:03;10.45;;;2.20;;
20824;SDS011;10573;50.936;6.978;2023-01-10T14:55:29;11.80;;;2.40;;
20824;SDS011;10573;50.936;6.978;2023-01-10T14:57:56;11.75;;;2.92;;
20824;SDS011;10573;50.936;6.978;2023-01-10T15:00:33;6.60;;;1.73;;
20824;SDS011;10573;50.936;6.978;2023-01-10T15:03:01;7.40;;;1.90;;
20824;SDS011;10573;50.936;6.978;2023-01-10T15:05:29;12.27;;;2.45;;
20824;SDS011;10573;50.936;6.978;2023-01-10T15:08:13;8.60;;;2.10;;
20824;SDS011;10573;50.936;6.978;2023-01-10T15:11:01;12.23;;;2.03;;
20824;SDS011;10573;50.936;6.978;2023-01-10T15:13:30;8.05;;;2.47;;
20824;SDS011;10573;50.936;6.978;2023-01-10T15:15:59;12.00;;;2.42;;
20824;SDS011;10573;50.936;6.978;2023-01-10T15:18:27;12.57;;;2.55;;
20824;SDS011;10573;50.936;6.978;2023-01-10T15:21:04;10.55;;;2.08;;
20824;SDS011;10573;50.936;6.978;2023-01-10T15:23:40;17.17;;;2.75;;
20824;SDS011;10573;50.936;6.978;2023-01-10T15:26:08;10.30;;;2.23;;
20824;SDS011;10573;50.936;6.978;2023-01-10T15:28:41;17.08;;;2.28;;
20824;SDS011;10573;50.936;6.978;2023-01-10T15:31:13;12.98;;;2.65;;
20824;SDS011;10573;50.936;6.978;2023-01-10T15:33:42;14.55;;;3.30;;
20824;SDS011;10573;50.936;6.978;2023-01-10T15:36:13;9.93;;;2.20;;
20824;SDS011;10573;50.936;6.978;2023-01-10T15:38:41;12.73;;;2.22;;
20824;SDS011;10573;50.936;6.978;2023-01-10T15:41:09;10.67;;;2.33;;
20824;SDS011;10573;50.936;6.978;2023-01-10T15:43:41;11.65;;;2.30;;
20824;SDS011;10573;50.936;6.978;2023-01-10T15:46:15;14.95;;;2.60;;
20824;SDS011;10573;50.936;6.978;2023-01-10T15:49:18;17.58;;;3.00;;
20824;SDS011;10573;50.936;6.978;2023-01-10T15:51:46;14.18;;;2.70;;
20824;SDS011;10573;50.936;6.978;2023-01-10T15:56:47;9.95;;;2.67;;
20824;SDS011;10573;50.936;6.978;2023-01-10T15:59:25;14.75;;;2.50;;
20824;SDS011;10573;50.936;6.978;2023-01-10T16:05:04;12.60;;;3.67;;
20824;SDS011;10573;50.936;6.978;2023-01-10T16:07:33;13.68;;;3.08;;
20824;SDS011;10573;50.936;6.978;2023-01-10T16:12:37;13.98;;;2.72;;
20824;SDS011;10573;50.936;6.978;2023-01-10T16:15:24;17.07;;;2.73;;
20824;SDS011;10573;50.936;6.978;2023-01-10T16:17:51;13.80;;;2.80;;
20824;SDS011;10573;50.936;6.978;2023-01-10T16:20:18;12.30;;;2.70;;
20824;SDS011;10573;50.936;6.978;2023-01-10T16:22:45;12.73;;;2.83;;
20824;SDS011;10573;50.936;6.978;2023-01-10T16:25:13;13.75;;;2.05;;
20824;SDS011;10573;50.936;6.978;2023-01-10T16:27:40;10.68;;;2.10;;